sensor_id;sensor_type;location;lat;lon;timestamp;P1;durP1;ratioP1;P2;durP2;ratioP2
23058;SDS011;30585;51.502;7.218;2023-08-20T00:00:08;11.40;;;8.45;;
23058;SDS011;30585;51.502;7.218;2023-08-20T00:02:37;8.48;;;7.47;;
23058;SDS011;30585;51.502;7.218;2023-08-20T00:05:08;8.77;;;7.78;;
23058;SDS011;30585;51.502;7.218;2023-08-20T00:07:38;11.90;;;7.97;;
23058;SDS011;30585;51.502;7.218;2023-08-20T00:10:07;8.95;;;7.07;;
23058;SDS011;30585;51.502;7.218;2023-08-20T00:12:36;13.35;;;7.72;;
23058;SDS011;30585;51.502;7.218;2023-08-20T00:15:05;11.02;;;7.30;;
23058;SDS011;30585;51.502;7.218;2023-08-20T00:17:35;8.98;;;7.40;;
23058;SDS011;30585;51.502;7.218;2023-08-20T00:20:05;9.38;;;7.53;;
23058;SDS011;30585;51.502;7.218;2023-08-20T00:22:36;9.40;;;6.80;;
23058;SDS011;30585;51.502;7.218;2023-08-20T00:25:06;10.85;;;8.20;;
23058;SDS011;30585;51.502;7.218;2023-08-20T00:27:35;9.38;;;7.55;;
23058;SDS011;30585;51.502;7.218;2023-08-20T00:30:03;13.82;;;7.72;;
23058;SDS011;30585;51.502;7.218;2023-08-20T00:32:32;8.82;;;7.30;;
23058;SDS011;30585;51.502;7.218;2023-08-20T00:35:00;12.48;;;8.13;;
23058;SDS011;30585;51.502;7.218;2023-08-20T00:37:29;8.52;;;7.43;;
23058;SDS011;30585;51.502;7.218;2023-08-20T00:39:59;12.38;;;7.85;;
23058;SDS011;30585;51.502;7.218;2023-08-20T00:42:26;10.80;;;8.23;;
23058;SDS011;30585;51.502;7.218;2023-08-20T00:44:56;10.73;;;7.80;;
23058;SDS011;30585;51.502;7.218;2023-08-20T00:47:23;11.98;;;7.75;;
23058;SDS011;30585;51.502;7.218;2023-08-20T00:49:51;13.75;;;7.50;;
23058;SDS011;30585;51.502;7.218;2023-08-20T00:52:20;12.73;;;8.00;;
23058;SDS011;30585;51.502;7.218;2023-08-20T00:54:49;9.38;;;8.05;;
23058;SDS011;30585;51.502;7.218;2023-08-20T00:57:19;9.88;;;8.18;;
23058;SDS011;30585;51.502;7.218;2023-08-20T00:59:49;13.23;;;8.55;;
23058;SDS011;30585;51.502;7.218;2023-08-20T01:02:17;9.75;;;7.95;;
23058;SDS011;30585;51.502;7.218;2023-08-20T01:04:46;11.60;;;9.02;;
23058;SDS011;30585;51.502;7.218;2023-08-20T01:07:18;11.55;;;10.23;;
23058;SDS011;30585;51.502;7.218;2023-08-20T01:09:54;13.82;;;10.57;;
23058;SDS011;30585;51.502;7.218;2023-08-20T01:12:29;18.20;;;11.95;;
23058;SDS011;30585;51.502;7.218;2023-08-20T01:14:58;13.32;;;10.40;;
23058;SDS011;30585;51.502;7.218;2023-08-20T01:17:26;15.02;;;10.60;;
23058;SDS011;30585;51.502;7.218;2023-08-20T01:19:54;14.05;;;11.52;;
23058;SDS011;30585;51.502;7.218;2023-08-20T01:22:29;17.50;;;13.13;;
23058;SDS011;30585;51.502;7.218;2023-08-20T01:25:17;13.88;;;10.25;;
23058;SDS011;30585;51.502;7.218;2023-08-20T01:28:01;15.57;;;12.35;;
23058;SDS011;30585;51.502;7.218;2023-08-20T01:30:37;13.73;;;11.30;;
23058;SDS011;30585;51.502;7.218;2023-08-20T01:33:05;15.98;;;12.85;;
23058;SDS011;30585;51.502;7.218;2023-08-20T01:35:33;20.52;;;13.65;;
23058;SDS011;30585;51.502;7.218;2023-08-20T01:38:01;16.30;;;12.95;;
23058;SDS011;30585;51.502;7.218;2023-08-20T01:40:30;17.23;;;13.13;;
23058;SDS011;30585;51.502;7.218;2023-08-20T01:42:57;15.13;;;11.70;;
23058;SDS011;30585;51.502;7.218;2023-08-20T01:45:25;17.33;;;12.38;;
23058;SDS011;30585;51.502;7.218;2023-08-20T01:47:54;13.38;;;12.00;;
23058;SDS011;30585;51.502;7.218;2023-08-20T01:50:23;13.98;;;11.95;;
23058;SDS011;30585;51.502;7.218;2023-08-20T01:52:50;14.27;;;11.48;;
23058;SDS011;30585;51.502;7.218;2023-08-20T01:55:18;22.95;;;13.05;;
23058;SDS011;30585;51.502;7.218;2023-08-20T01:57:46;14.10;;;12.23;;
23058;SDS011;30585;51.502;7.218;2023-08-20T02:00:14;16.88;;;12.05;;
23058;SDS011;30585;51.502;7.218;2023-08-20T02:02:42;14.95;;;11.57;;
23058;SDS011;30585;51.502;7.218;2023-08-20T02:05:11;17.58;;;11.65;;
23058;SDS011;30585;51.502;7.218;2023-08-20T02:07:39;15.82;;;11.63;;
23058;SDS011;30585;51.502;7.218;2023-08-20T02:10:07;16.90;;;12.10;;
23058;SDS011;30585;51.502;7.218;2023-08-20T02:12:35;18.95;;;11.45;;
23058;SDS011;30585;51.502;7.218;2023-08-20T02:15:03;17.67;;;11.57;;
23058;SDS011;30585;51.502;7.218;2023-08-20T02:17:32;19.80;;;12.38;;
23058;SDS011;30585;51.502;7.218;2023-08-20T02:20:02;18.52;;;12.70;;
23058;SDS011;30585;51.502;7.218;2023-08-20T02:22:33;14.65;;;12.02;;
23058;SDS011;30585;51.502;7.218;2023-08-20T02:25:00;18.80;;;12.68;;
23058;SDS011;30585;51.502;7.218;2023-08-20T02:27:28;15.27;;;13.35;;
23058;SDS011;30585;51.502;7.218;2023-08-20T02:29:56;20.02;;;13.48;;
23058;SDS011;30585;51.502;7.218;2023-08-20T02:32:24;16.30;;;12.93;;
23058;SDS011;30585;51.502;7.218;2023-08-20T02:34:52;15.57;;;13.15;;
23058;SDS011;30585;51.502;7.218;2023-08-20T02:37:20;17.77;;;14.48;;
23058;SDS011;30585;51.502;7.218;2023-08-20T02:39:49;19.17;;;13.73;;
23058;SDS011;30585;51.502;7.218;2023-08-20T02:42:17;15.45;;;13.40;;
23058;SDS011;30585;51.502;7.218;2023-08-20T02:44:45;17.90;;;14.32;;
23058;SDS011;30585;51.502;7.218;2023-08-20T02:47:12;18.13;;;14.40;;
23058;SDS011;30585;51.502;7.218;2023-08-20T02:49:40;18.23;;;14.02;;
23058;SDS011;30585;51.502;7.218;2023-08-20T02:52:08;16.27;;;12.82;;
23058;SDS011;30585;51.502;7.218;2023-08-20T02:54:36;17.27;;;14.10;;
23058;SDS011;30585;51.502;7.218;2023-08-20T02:57:05;17.58;;;12.88;;
23058;SDS011;30585;51.502;7.218;2023-08-20T02:59:32;23.70;;;14.40;;
23058;SDS011;30585;51.502;7.218;2023-08-20T03:02:00;17.15;;;11.65;;
23058;SDS011;30585;51.502;7.218;2023-08-20T03:04:29;15.90;;;12.48;;
23058;SDS011;30585;51.502;7.218;2023-08-20T03:06:57;14.35;;;12.60;;
23058;SDS011;30585;51.502;7.218;2023-08-20T03:09:25;17.80;;;13.32;;
23058;SDS011;30585;51.502;7.218;2023-08-20T03:11:53;18.00;;;14.27;;
23058;SDS011;30585;51.502;7.218;2023-08-20T03:14:22;15.32;;;13.05;;
23058;SDS011;30585;51.502;7.218;2023-08-20T03:16:53;18.38;;;13.35;;
23058;SDS011;30585;51.502;7.218;2023-08-20T03:19:21;16.27;;;13.10;;
23058;SDS011;30585;51.502;7.218;2023-08-20T03:21:49;15.57;;;13.57;;
23058;SDS011;30585;51.502;7.218;2023-08-20T03:24:17;19.88;;;14.07;;
23058;SDS011;30585;51.502;7.218;2023-08-20T03:26:45;17.85;;;13.98;;
23058;SDS011;30585;51.502;7.218;2023-08-20T03:29:13;16.38;;;13.43;;
23058;SDS011;30585;51.502;7.218;2023-08-20T03:31:42;15.13;;;13.20;;
23058;SDS011;30585;51.502;7.218;2023-08-20T03:34:10;19.65;;;14.55;;
23058;SDS011;30585;51.502;7.218;2023-08-20T03:36:38;17.25;;;13.80;;
23058;SDS011;30585;51.502;7.218;2023-08-20T03:39:06;17.50;;;14.20;;
23058;SDS011;30585;51.502;7.218;2023-08-20T03:41:34;19.17;;;14.27;;
23058;SDS011;30585;51.502;7.218;2023-08-20T03:44:02;17.88;;;14.43;;
23058;SDS011;30585;51.502;7.218;2023-08-20T03:46:31;17.55;;;13.40;;
23058;SDS011;30585;51.502;7.218;2023-08-20T03:49:00;15.82;;;13.73;;
23058;SDS011;30585;51.502;7.218;2023-08-20T03:51:28;19.15;;;13.82;;
23058;SDS011;30585;51.502;7.218;2023-08-20T03:53:56;18.85;;;14.95;;
23058;SDS011;30585;51.502;7.218;2023-08-20T03:56:23;18.45;;;13.98;;
23058;SDS011;30585;51.502;7.218;2023-08-20T03:58:51;19.83;;;15.02;;
23058;SDS011;30585;51.502;7.218;2023-08-20T04:01:19;19.08;;;14.90;;
23058;SDS011;30585;51.502;7.218;2023-08-20T04:03:47;18.85;;;12.95;;
23058;SDS011;30585;51.502;7.218;2023-08-20T04:06:16;20.70;;;14.80;;
23058;SDS011;30585;51.502;7.218;2023-08-20T04:08:44;18.35;;;14.95;;
23058;SDS011;30585;51.502;7.218;2023-08-20T04:11:12;18.67;;;15.35;;
23058;SDS011;30585;51.502;7.218;2023-08-20T04:13:39;15.50;;;13.85;;
23058;SDS011;30585;51.502;7.218;2023-08-20T04:16:09;17.60;;;13.82;;
23058;SDS011;30585;51.502;7.218;2023-08-20T04:18:37;18.25;;;14.07;;
23058;SDS011;30585;51.502;7.218;2023-08-20T04:21:05;19.73;;;14.30;;
23058;SDS011;30585;51.502;7.218;2023-08-20T04:23:34;20.00;;;14.70;;
23058;SDS011;30585;51.502;7.218;2023-08-20T04:26:02;20.08;;;15.85;;
23058;SDS011;30585;51.502;7.218;2023-08-20T04:28:30;21.85;;;15.77;;
23058;SDS011;30585;51.502;7.218;2023-08-20T04:30:58;25.83;;;18.23;;
23058;SDS011;30585;51.502;7.218;2023-08-20T04:33:26;24.67;;;16.85;;
23058;SDS011;30585;51.502;7.218;2023-08-20T04:35:54;26.52;;;17.35;;
23058;SDS011;30585;51.502;7.218;2023-08-20T04:38:22;40.72;;;22.90;;
23058;SDS011;30585;51.502;7.218;2023-08-20T04:40:51;49.08;;;26.05;;
23058;SDS011;30585;51.502;7.218;2023-08-20T04:43:19;53.78;;;30.75;;
23058;SDS011;30585;51.502;7.218;2023-08-20T04:45:46;53.63;;;30.27;;
23058;SDS011;30585;51.502;7.218;2023-08-20T04:48:14;57.25;;;32.35;;
23058;SDS011;30585;51.502;7.218;2023-08-20T04:50:42;71.75;;;35.42;;
23058;SDS011;30585;51.502;7.218;2023-08-20T04:53:09;81.38;;;38.33;;
23058;SDS011;30585;51.502;7.218;2023-08-20T04:55:37;85.15;;;41.15;;
23058;SDS011;30585;51.502;7.218;2023-08-20T04:58:06;65.57;;;37.10;;
23058;SDS011;30585;51.502;7.218;2023-08-20T05:00:34;70.30;;;37.85;;
23058;SDS011;30585;51.502;7.218;2023-08-20T05:03:02;61.25;;;35.10;;
23058;SDS011;30585;51.502;7.218;2023-08-20T05:05:30;93.15;;;38.72;;
23058;SDS011;30585;51.502;7.218;2023-08-20T05:07:58;70.00;;;37.53;;
23058;SDS011;30585;51.502;7.218;2023-08-20T05:10:26;112.00;;;42.28;;
23058;SDS011;30585;51.502;7.218;2023-08-20T05:12:53;120.68;;;42.35;;
23058;SDS011;30585;51.502;7.218;2023-08-20T05:15:22;65.28;;;37.58;;
23058;SDS011;30585;51.502;7.218;2023-08-20T05:17:50;60.17;;;36.03;;
23058;SDS011;30585;51.502;7.218;2023-08-20T05:20:18;52.20;;;34.65;;
23058;SDS011;30585;51.502;7.218;2023-08-20T05:22:46;53.22;;;36.90;;
23058;SDS011;30585;51.502;7.218;2023-08-20T05:25:13;56.58;;;35.55;;
23058;SDS011;30585;51.502;7.218;2023-08-20T05:27:41;56.25;;;36.83;;
23058;SDS011;30585;51.502;7.218;2023-08-20T05:30:09;58.47;;;36.08;;
23058;SDS011;30585;51.502;7.218;2023-08-20T05:32:39;57.20;;;36.83;;
23058;SDS011;30585;51.502;7.218;2023-08-20T05:35:07;54.33;;;36.50;;
23058;SDS011;30585;51.502;7.218;2023-08-20T05:37:35;71.88;;;38.97;;
23058;SDS011;30585;51.502;7.218;2023-08-20T05:40:03;101.97;;;40.50;;
23058;SDS011;30585;51.502;7.218;2023-08-20T05:42:32;50.63;;;35.80;;
23058;SDS011;30585;51.502;7.218;2023-08-20T05:45:00;106.82;;;40.17;;
23058;SDS011;30585;51.502;7.218;2023-08-20T05:47:28;58.15;;;36.85;;
23058;SDS011;30585;51.502;7.218;2023-08-20T05:49:57;52.00;;;35.28;;
23058;SDS011;30585;51.502;7.218;2023-08-20T05:52:25;51.67;;;34.58;;
23058;SDS011;30585;51.502;7.218;2023-08-20T05:54:53;45.58;;;33.20;;
23058;SDS011;30585;51.502;7.218;2023-08-20T05:57:21;44.63;;;31.55;;
23058;SDS011;30585;51.502;7.218;2023-08-20T05:59:49;44.20;;;32.47;;
23058;SDS011;30585;51.502;7.218;2023-08-20T06:02:18;43.88;;;30.50;;
23058;SDS011;30585;51.502;7.218;2023-08-20T06:04:46;46.60;;;31.92;;
23058;SDS011;30585;51.502;7.218;2023-08-20T06:07:16;38.70;;;28.67;;
23058;SDS011;30585;51.502;7.218;2023-08-20T06:09:44;40.28;;;29.15;;
23058;SDS011;30585;51.502;7.218;2023-08-20T06:12:12;40.85;;;29.92;;
23058;SDS011;30585;51.502;7.218;2023-08-20T06:14:40;37.83;;;27.52;;
23058;SDS011;30585;51.502;7.218;2023-08-20T06:17:08;44.53;;;31.48;;
23058;SDS011;30585;51.502;7.218;2023-08-20T06:19:35;42.72;;;31.38;;
23058;SDS011;30585;51.502;7.218;2023-08-20T06:22:04;40.47;;;29.05;;
23058;SDS011;30585;51.502;7.218;2023-08-20T06:24:33;39.10;;;28.02;;
23058;SDS011;30585;51.502;7.218;2023-08-20T06:27:01;41.28;;;30.17;;
23058;SDS011;30585;51.502;7.218;2023-08-20T06:29:29;44.03;;;30.35;;
23058;SDS011;30585;51.502;7.218;2023-08-20T06:31:57;43.13;;;29.50;;
23058;SDS011;30585;51.502;7.218;2023-08-20T06:34:25;43.83;;;30.40;;
23058;SDS011;30585;51.502;7.218;2023-08-20T06:36:53;41.83;;;28.80;;
23058;SDS011;30585;51.502;7.218;2023-08-20T06:39:21;45.08;;;30.23;;
23058;SDS011;30585;51.502;7.218;2023-08-20T06:41:50;45.38;;;32.20;;
23058;SDS011;30585;51.502;7.218;2023-08-20T06:44:17;44.47;;;29.48;;
23058;SDS011;30585;51.502;7.218;2023-08-20T06:46:45;48.63;;;31.60;;
23058;SDS011;30585;51.502;7.218;2023-08-20T06:49:13;44.72;;;29.77;;
23058;SDS011;30585;51.502;7.218;2023-08-20T06:51:41;53.45;;;34.22;;
23058;SDS011;30585;51.502;7.218;2023-08-20T06:54:09;42.55;;;31.77;;
23058;SDS011;30585;51.502;7.218;2023-08-20T06:56:36;39.28;;;28.38;;
23058;SDS011;30585;51.502;7.218;2023-08-20T06:59:06;40.03;;;28.95;;
23058;SDS011;30585;51.502;7.218;2023-08-20T07:01:33;44.83;;;31.42;;
23058;SDS011;30585;51.502;7.218;2023-08-20T07:04:01;43.33;;;30.80;;
23058;SDS011;30585;51.502;7.218;2023-08-20T07:06:29;41.72;;;31.60;;
23058;SDS011;30585;51.502;7.218;2023-08-20T07:08:57;38.90;;;30.08;;
23058;SDS011;30585;51.502;7.218;2023-08-20T07:11:25;40.83;;;29.45;;
23058;SDS011;30585;51.502;7.218;2023-08-20T07:13:53;36.60;;;27.67;;
23058;SDS011;30585;51.502;7.218;2023-08-20T07:16:22;35.03;;;27.80;;
23058;SDS011;30585;51.502;7.218;2023-08-20T07:18:50;36.90;;;27.33;;
23058;SDS011;30585;51.502;7.218;2023-08-20T07:21:19;40.75;;;28.60;;
23058;SDS011;30585;51.502;7.218;2023-08-20T07:23:47;37.38;;;27.75;;
23058;SDS011;30585;51.502;7.218;2023-08-20T07:26:15;36.15;;;26.33;;
23058;SDS011;30585;51.502;7.218;2023-08-20T07:28:43;34.72;;;26.17;;
23058;SDS011;30585;51.502;7.218;2023-08-20T07:31:28;34.58;;;26.70;;
23058;SDS011;30585;51.502;7.218;2023-08-20T07:33:57;33.00;;;24.52;;
23058;SDS011;30585;51.502;7.218;2023-08-20T07:36:29;29.60;;;24.52;;
23058;SDS011;30585;51.502;7.218;2023-08-20T07:38:57;32.05;;;24.65;;
23058;SDS011;30585;51.502;7.218;2023-08-20T07:41:25;32.13;;;24.33;;
23058;SDS011;30585;51.502;7.218;2023-08-20T07:43:53;31.25;;;22.50;;
23058;SDS011;30585;51.502;7.218;2023-08-20T07:46:20;26.67;;;22.13;;
23058;SDS011;30585;51.502;7.218;2023-08-20T07:48:49;27.23;;;21.75;;
23058;SDS011;30585;51.502;7.218;2023-08-20T07:51:17;28.75;;;23.83;;
23058;SDS011;30585;51.502;7.218;2023-08-20T07:53:45;26.02;;;22.35;;
23058;SDS011;30585;51.502;7.218;2023-08-20T07:56:13;27.40;;;21.77;;
23058;SDS011;30585;51.502;7.218;2023-08-20T07:58:40;25.80;;;20.70;;
23058;SDS011;30585;51.502;7.218;2023-08-20T08:01:08;25.02;;;19.67;;
23058;SDS011;30585;51.502;7.218;2023-08-20T08:03:36;20.60;;;17.83;;
23058;SDS011;30585;51.502;7.218;2023-08-20T08:06:05;22.20;;;18.77;;
23058;SDS011;30585;51.502;7.218;2023-08-20T08:08:33;21.83;;;18.42;;
23058;SDS011;30585;51.502;7.218;2023-08-20T08:11:01;22.75;;;17.92;;
23058;SDS011;30585;51.502;7.218;2023-08-20T08:13:28;20.88;;;18.60;;
23058;SDS011;30585;51.502;7.218;2023-08-20T08:15:56;22.20;;;18.30;;
23058;SDS011;30585;51.502;7.218;2023-08-20T08:18:24;21.67;;;17.67;;
23058;SDS011;30585;51.502;7.218;2023-08-20T08:20:51;20.40;;;17.33;;
23058;SDS011;30585;51.502;7.218;2023-08-20T08:23:21;22.10;;;16.20;;
23058;SDS011;30585;51.502;7.218;2023-08-20T08:25:48;22.20;;;17.80;;
23058;SDS011;30585;51.502;7.218;2023-08-20T08:28:16;21.05;;;17.48;;
23058;SDS011;30585;51.502;7.218;2023-08-20T08:30:44;24.10;;;17.30;;
23058;SDS011;30585;51.502;7.218;2023-08-20T08:33:12;18.42;;;15.73;;
23058;SDS011;30585;51.502;7.218;2023-08-20T08:35:39;18.70;;;16.50;;
23058;SDS011;30585;51.502;7.218;2023-08-20T08:38:07;17.00;;;14.77;;
23058;SDS011;30585;51.502;7.218;2023-08-20T08:40:36;15.38;;;13.57;;
23058;SDS011;30585;51.502;7.218;2023-08-20T08:43:05;15.45;;;12.55;;
23058;SDS011;30585;51.502;7.218;2023-08-20T08:45:33;15.98;;;12.50;;
23058;SDS011;30585;51.502;7.218;2023-08-20T08:48:02;15.23;;;12.27;;
23058;SDS011;30585;51.502;7.218;2023-08-20T08:50:30;14.63;;;12.80;;
23058;SDS011;30585;51.502;7.218;2023-08-20T08:52:59;13.60;;;12.18;;
23058;SDS011;30585;51.502;7.218;2023-08-20T08:55:27;16.13;;;13.35;;
23058;SDS011;30585;51.502;7.218;2023-08-20T08:57:56;13.18;;;11.75;;
23058;SDS011;30585;51.502;7.218;2023-08-20T09:00:24;15.10;;;12.23;;
23058;SDS011;30585;51.502;7.218;2023-08-20T09:02:52;11.70;;;9.68;;
23058;SDS011;30585;51.502;7.218;2023-08-20T09:05:20;9.80;;;8.70;;
23058;SDS011;30585;51.502;7.218;2023-08-20T09:07:48;9.50;;;7.25;;
23058;SDS011;30585;51.502;7.218;2023-08-20T09:10:25;9.95;;;8.43;;
23058;SDS011;30585;51.502;7.218;2023-08-20T09:12:54;8.70;;;7.45;;
23058;SDS011;30585;51.502;7.218;2023-08-20T09:15:31;8.82;;;7.45;;
23058;SDS011;30585;51.502;7.218;2023-08-20T09:18:01;7.85;;;6.13;;
23058;SDS011;30585;51.502;7.218;2023-08-20T09:20:33;9.43;;;6.65;;
23058;SDS011;30585;51.502;7.218;2023-08-20T09:23:02;9.50;;;6.85;;
23058;SDS011;30585;51.502;7.218;2023-08-20T09:25:30;7.15;;;6.45;;
23058;SDS011;30585;51.502;7.218;2023-08-20T09:28:03;7.35;;;6.65;;
23058;SDS011;30585;51.502;7.218;2023-08-20T09:30:31;10.52;;;7.10;;
23058;SDS011;30585;51.502;7.218;2023-08-20T09:33:02;8.45;;;6.70;;
23058;SDS011;30585;51.502;7.218;2023-08-20T09:35:31;9.10;;;7.22;;
23058;SDS011;30585;51.502;7.218;2023-08-20T09:37:59;8.15;;;6.47;;
23058;SDS011;30585;51.502;7.218;2023-08-20T09:40:27;8.55;;;6.30;;
23058;SDS011;30585;51.502;7.218;2023-08-20T09:42:55;7.43;;;6.03;;
23058;SDS011;30585;51.502;7.218;2023-08-20T09:45:26;6.60;;;5.95;;
23058;SDS011;30585;51.502;7.218;2023-08-20T09:47:55;8.10;;;6.50;;
23058;SDS011;30585;51.502;7.218;2023-08-20T09:50:26;11.40;;;7.10;;
23058;SDS011;30585;51.502;7.218;2023-08-20T09:52:56;6.25;;;5.35;;
23058;SDS011;30585;51.502;7.218;2023-08-20T09:55:28;6.78;;;5.82;;
23058;SDS011;30585;51.502;7.218;2023-08-20T09:57:57;7.25;;;6.40;;
23058;SDS011;30585;51.502;7.218;2023-08-20T10:00:27;8.38;;;6.72;;
23058;SDS011;30585;51.502;7.218;2023-08-20T10:02:56;8.93;;;7.22;;
23058;SDS011;30585;51.502;7.218;2023-08-20T10:05:25;8.98;;;6.93;;
23058;SDS011;30585;51.502;7.218;2023-08-20T10:07:54;7.28;;;6.35;;
23058;SDS011;30585;51.502;7.218;2023-08-20T10:10:23;7.68;;;6.88;;
23058;SDS011;30585;51.502;7.218;2023-08-20T10:12:53;7.20;;;6.45;;
23058;SDS011;30585;51.502;7.218;2023-08-20T10:15:22;9.27;;;6.78;;
23058;SDS011;30585;51.502;7.218;2023-08-20T10:17:56;7.55;;;6.75;;
23058;SDS011;30585;51.502;7.218;2023-08-20T10:20:25;10.27;;;7.43;;
23058;SDS011;30585;51.502;7.218;2023-08-20T10:23:00;7.53;;;6.75;;
23058;SDS011;30585;51.502;7.218;2023-08-20T10:25:30;7.47;;;6.78;;
23058;SDS011;30585;51.502;7.218;2023-08-20T10:28:11;8.93;;;7.13;;
23058;SDS011;30585;51.502;7.218;2023-08-20T10:33:33;8.25;;;6.57;;
23058;SDS011;30585;51.502;7.218;2023-08-20T10:36:09;6.95;;;6.30;;
23058;SDS011;30585;51.502;7.218;2023-08-20T10:38:38;7.43;;;6.60;;
23058;SDS011;30585;51.502;7.218;2023-08-20T10:41:06;7.55;;;5.93;;
23058;SDS011;30585;51.502;7.218;2023-08-20T10:43:35;8.70;;;7.78;;
23058;SDS011;30585;51.502;7.218;2023-08-20T10:46:10;11.43;;;7.97;;
23058;SDS011;30585;51.502;7.218;2023-08-20T10:48:46;10.75;;;8.68;;
23058;SDS011;30585;51.502;7.218;2023-08-20T10:51:16;11.75;;;8.80;;
23058;SDS011;30585;51.502;7.218;2023-08-20T10:53:48;11.00;;;9.18;;
23058;SDS011;30585;51.502;7.218;2023-08-20T10:56:37;9.63;;;8.65;;
23058;SDS011;30585;51.502;7.218;2023-08-20T10:59:06;10.15;;;9.10;;
23058;SDS011;30585;51.502;7.218;2023-08-20T11:01:35;10.40;;;9.30;;
23058;SDS011;30585;51.502;7.218;2023-08-20T11:04:05;9.07;;;8.18;;
23058;SDS011;30585;51.502;7.218;2023-08-20T11:06:33;8.85;;;7.13;;
23058;SDS011;30585;51.502;7.218;2023-08-20T11:09:01;7.47;;;6.88;;
23058;SDS011;30585;51.502;7.218;2023-08-20T11:11:31;14.95;;;12.18;;
23058;SDS011;30585;51.502;7.218;2023-08-20T11:14:04;16.65;;;13.98;;
23058;SDS011;30585;51.502;7.218;2023-08-20T11:16:33;16.52;;;14.68;;
23058;SDS011;30585;51.502;7.218;2023-08-20T11:19:01;16.67;;;13.93;;
23058;SDS011;30585;51.502;7.218;2023-08-20T11:21:33;19.00;;;14.80;;
23058;SDS011;30585;51.502;7.218;2023-08-20T11:24:01;15.32;;;13.68;;
23058;SDS011;30585;51.502;7.218;2023-08-20T11:26:29;14.50;;;13.10;;
23058;SDS011;30585;51.502;7.218;2023-08-20T11:28:57;15.75;;;13.98;;
23058;SDS011;30585;51.502;7.218;2023-08-20T11:31:25;13.88;;;12.48;;
23058;SDS011;30585;51.502;7.218;2023-08-20T11:33:53;14.80;;;13.20;;
23058;SDS011;30585;51.502;7.218;2023-08-20T11:36:24;16.15;;;13.98;;
23058;SDS011;30585;51.502;7.218;2023-08-20T11:38:53;14.90;;;13.48;;
23058;SDS011;30585;51.502;7.218;2023-08-20T11:41:21;14.82;;;12.80;;
23058;SDS011;30585;51.502;7.218;2023-08-20T11:43:49;17.05;;;15.45;;
23058;SDS011;30585;51.502;7.218;2023-08-20T11:46:19;18.10;;;15.48;;
23058;SDS011;30585;51.502;7.218;2023-08-20T11:49:04;17.55;;;15.60;;
23058;SDS011;30585;51.502;7.218;2023-08-20T11:51:35;17.63;;;16.00;;
23058;SDS011;30585;51.502;7.218;2023-08-20T11:54:05;17.92;;;15.57;;
23058;SDS011;30585;51.502;7.218;2023-08-20T11:56:35;17.77;;;16.13;;
23058;SDS011;30585;51.502;7.218;2023-08-20T11:59:04;19.58;;;16.67;;
23058;SDS011;30585;51.502;7.218;2023-08-20T12:01:32;19.20;;;17.08;;
23058;SDS011;30585;51.502;7.218;2023-08-20T12:04:00;17.95;;;16.25;;
23058;SDS011;30585;51.502;7.218;2023-08-20T12:06:29;18.35;;;16.48;;
23058;SDS011;30585;51.502;7.218;2023-08-20T12:08:57;15.85;;;14.30;;
23058;SDS011;30585;51.502;7.218;2023-08-20T12:11:28;14.90;;;13.40;;
23058;SDS011;30585;51.502;7.218;2023-08-20T12:13:57;12.82;;;11.50;;
23058;SDS011;30585;51.502;7.218;2023-08-20T12:16:26;13.57;;;12.18;;
23058;SDS011;30585;51.502;7.218;2023-08-20T12:18:55;14.68;;;12.75;;
23058;SDS011;30585;51.502;7.218;2023-08-20T12:21:23;14.02;;;12.70;;
23058;SDS011;30585;51.502;7.218;2023-08-20T12:23:51;12.52;;;11.25;;
23058;SDS011;30585;51.502;7.218;2023-08-20T12:26:25;11.10;;;10.00;;
23058;SDS011;30585;51.502;7.218;2023-08-20T12:28:55;11.85;;;10.68;;
23058;SDS011;30585;51.502;7.218;2023-08-20T12:31:23;10.52;;;9.55;;
23058;SDS011;30585;51.502;7.218;2023-08-20T12:33:52;11.52;;;9.10;;
23058;SDS011;30585;51.502;7.218;2023-08-20T12:36:20;8.50;;;7.80;;
23058;SDS011;30585;51.502;7.218;2023-08-20T12:38:49;9.20;;;8.38;;
23058;SDS011;30585;51.502;7.218;2023-08-20T12:41:18;9.85;;;8.95;;
23058;SDS011;30585;51.502;7.218;2023-08-20T12:43:47;9.25;;;8.35;;
23058;SDS011;30585;51.502;7.218;2023-08-20T12:46:20;9.30;;;8.30;;
23058;SDS011;30585;51.502;7.218;2023-08-20T12:48:48;10.13;;;9.25;;
23058;SDS011;30585;51.502;7.218;2023-08-20T12:51:22;10.90;;;9.93;;
23058;SDS011;30585;51.502;7.218;2023-08-20T12:53:51;11.52;;;10.32;;
23058;SDS011;30585;51.502;7.218;2023-08-20T12:56:19;11.05;;;10.15;;
23058;SDS011;30585;51.502;7.218;2023-08-20T12:58:47;11.15;;;10.15;;
23058;SDS011;30585;51.502;7.218;2023-08-20T13:01:15;10.85;;;9.75;;
23058;SDS011;30585;51.502;7.218;2023-08-20T13:03:47;12.85;;;10.15;;
23058;SDS011;30585;51.502;7.218;2023-08-20T13:06:17;11.30;;;10.25;;
23058;SDS011;30585;51.502;7.218;2023-08-20T13:08:45;11.15;;;10.10;;
23058;SDS011;30585;51.502;7.218;2023-08-20T13:11:17;10.27;;;8.95;;
23058;SDS011;30585;51.502;7.218;2023-08-20T13:13:48;10.35;;;8.57;;
23058;SDS011;30585;51.502;7.218;2023-08-20T13:16:18;10.55;;;8.93;;
23058;SDS011;30585;51.502;7.218;2023-08-20T13:18:48;10.93;;;8.60;;
23058;SDS011;30585;51.502;7.218;2023-08-20T13:21:16;9.52;;;8.63;;
23058;SDS011;30585;51.502;7.218;2023-08-20T13:23:44;9.98;;;8.98;;
23058;SDS011;30585;51.502;7.218;2023-08-20T13:26:11;9.82;;;8.82;;
23058;SDS011;30585;51.502;7.218;2023-08-20T13:28:39;9.23;;;8.32;;
23058;SDS011;30585;51.502;7.218;2023-08-20T13:31:07;10.07;;;8.88;;
23058;SDS011;30585;51.502;7.218;2023-08-20T13:33:35;10.75;;;8.70;;
23058;SDS011;30585;51.502;7.218;2023-08-20T13:36:04;8.00;;;7.30;;
23058;SDS011;30585;51.502;7.218;2023-08-20T13:38:33;10.98;;;7.50;;
23058;SDS011;30585;51.502;7.218;2023-08-20T13:41:01;10.63;;;7.63;;
23058;SDS011;30585;51.502;7.218;2023-08-20T13:43:29;7.55;;;6.85;;
23058;SDS011;30585;51.502;7.218;2023-08-20T13:45:58;7.93;;;7.05;;
23058;SDS011;30585;51.502;7.218;2023-08-20T13:48:26;8.60;;;7.40;;
23058;SDS011;30585;51.502;7.218;2023-08-20T13:50:59;7.70;;;6.15;;
23058;SDS011;30585;51.502;7.218;2023-08-20T13:53:30;9.05;;;7.63;;
23058;SDS011;30585;51.502;7.218;2023-08-20T13:55:58;7.88;;;6.18;;
23058;SDS011;30585;51.502;7.218;2023-08-20T13:58:31;8.20;;;6.38;;
23058;SDS011;30585;51.502;7.218;2023-08-20T14:01:01;8.45;;;5.93;;
23058;SDS011;30585;51.502;7.218;2023-08-20T14:03:30;7.00;;;6.28;;
23058;SDS011;30585;51.502;7.218;2023-08-20T14:05:59;7.30;;;5.53;;
23058;SDS011;30585;51.502;7.218;2023-08-20T14:08:28;7.50;;;5.25;;
23058;SDS011;30585;51.502;7.218;2023-08-20T14:11:04;5.35;;;4.75;;
23058;SDS011;30585;51.502;7.218;2023-08-20T14:13:32;7.97;;;5.85;;
23058;SDS011;30585;51.502;7.218;2023-08-20T14:16:00;7.20;;;5.30;;
23058;SDS011;30585;51.502;7.218;2023-08-20T14:18:28;7.22;;;5.60;;
23058;SDS011;30585;51.502;7.218;2023-08-20T14:20:56;6.53;;;5.10;;
23058;SDS011;30585;51.502;7.218;2023-08-20T14:23:24;6.53;;;4.72;;
23058;SDS011;30585;51.502;7.218;2023-08-20T14:25:53;8.18;;;5.40;;
23058;SDS011;30585;51.502;7.218;2023-08-20T14:28:21;6.45;;;4.80;;
23058;SDS011;30585;51.502;7.218;2023-08-20T14:30:49;6.57;;;4.93;;
23058;SDS011;30585;51.502;7.218;2023-08-20T14:33:20;6.13;;;4.72;;
23058;SDS011;30585;51.502;7.218;2023-08-20T14:35:48;5.10;;;4.07;;
23058;SDS011;30585;51.502;7.218;2023-08-20T14:38:15;6.43;;;4.03;;
23058;SDS011;30585;51.502;7.218;2023-08-20T14:40:43;6.18;;;4.57;;